sensor_id;sensor_type;location;lat;lon;timestamp;pressure;altitude;pressure_sealevel;temperature;humidity
46392;BME280;32098;49.448;7.904;2022-12-18T00:01:27;99232.75;;;-12.17;73.24
46392;BME280;32098;49.448;7.904;2022-12-18T00:03:55;99264.88;;;-12.25;72.75
46392;BME280;32098;49.448;7.904;2022-12-18T00:06:24;99237.91;;;-12.58;73.13
46392;BME280;32098;49.448;7.904;2022-12-18T00:08:53;99112.63;;;-13.60;73.53
46392;BME280;32098;49.448;7.904;2022-12-18T00:11:23;99303.16;;;-12.39;73.15
46392;BME280;32098;49.448;7.904;2022-12-18T00:13:51;99236.25;;;-12.59;72.92
46392;BME280;32098;49.448;7.904;2022-12-18T00:16:20;99237.31;;;-12.43;72.40
46392;BME280;32098;49.448;7.904;2022-12-18T00:18:50;99169.75;;;-12.48;72.21
46392;BME280;32098;49.448;7.904;2022-12-18T00:21:18;99234.00;;;-12.05;71.84
46392;BME280;32098;49.448;7.904;2022-12-18T00:23:46;99279.06;;;-11.75;71.54
46392;BME280;32098;49.448;7.904;2022-12-18T00:26:25;99269.72;;;-11.97;71.60
46392;BME280;32098;49.448;7.904;2022-12-18T00:29:01;98984.84;;;-13.75;71.54
46392;BME280;32098;49.448;7.904;2022-12-18T00:31:29;99299.00;;;-12.00;71.49
46392;BME280;32098;49.448;7.904;2022-12-18T00:33:57;99296.25;;;-11.95;71.88
46392;BME280;32098;49.448;7.904;2022-12-18T00:36:29;99273.38;;;-11.83;71.58
46392;BME280;32098;49.448;7.904;2022-12-18T00:38:57;99297.44;;;-11.64;71.60
46392;BME280;32098;49.448;7.904;2022-12-18T00:41:24;99126.09;;;-12.70;71.11
46392;BME280;32098;49.448;7.904;2022-12-18T00:44:12;99304.66;;;-11.52;70.08
46392;BME280;32098;49.448;7.904;2022-12-18T00:46:39;99300.28;;;-11.50;69.19
46392;BME280;32098;49.448;7.904;2022-12-18T00:49:06;99317.38;;;-11.47;69.40
46392;BME280;32098;49.448;7.904;2022-12-18T00:51:33;99296.47;;;-11.41;70.77
46392;BME280;32098;49.448;7.904;2022-12-18T00:54:00;99200.25;;;-11.99;70.28
46392;BME280;32098;49.448;7.904;2022-12-18T00:56:27;99116.78;;;-12.52;69.60
46392;BME280;32098;49.448;7.904;2022-12-18T00:58:53;99215.25;;;-12.08;69.11
46392;BME280;32098;49.448;7.904;2022-12-18T01:01:20;99306.34;;;-11.51;69.54
46392;BME280;32098;49.448;7.904;2022-12-18T01:03:48;99265.53;;;-12.00;69.83
46392;BME280;32098;49.448;7.904;2022-12-18T01:06:16;99321.88;;;-11.72;70.13
46392;BME280;32098;49.448;7.904;2022-12-18T01:08:43;99261.69;;;-11.90;69.73
46392;BME280;32098;49.448;7.904;2022-12-18T01:11:15;99273.25;;;-11.80;70.19
46392;BME280;32098;49.448;7.904;2022-12-18T01:13:43;99279.28;;;-11.61;69.80
46392;BME280;32098;49.448;7.904;2022-12-18T01:16:14;99274.66;;;-11.53;70.51
46392;BME280;32098;49.448;7.904;2022-12-18T01:18:42;99279.06;;;-11.75;70.33
46392;BME280;32098;49.448;7.904;2022-12-18T01:21:10;99080.31;;;-13.02;70.27
46392;BME280;32098;49.448;7.904;2022-12-18T01:23:37;99297.41;;;-11.82;70.12
46392;BME280;32098;49.448;7.904;2022-12-18T01:26:18;99302.25;;;-11.75;69.63
46392;BME280;32098;49.448;7.904;2022-12-18T01:28:44;99237.84;;;-11.95;70.44
46392;BME280;32098;49.448;7.904;2022-12-18T01:31:21;99238.31;;;-11.85;70.43
46392;BME280;32098;49.448;7.904;2022-12-18T01:33:49;99140.19;;;-12.38;70.13
46392;BME280;32098;49.448;7.904;2022-12-18T01:36:19;99110.47;;;-12.65;70.33
46392;BME280;32098;49.448;7.904;2022-12-18T01:38:48;99262.56;;;-11.91;69.81
46392;BME280;32098;49.448;7.904;2022-12-18T01:41:17;99222.53;;;-12.18;70.45
46392;BME280;32098;49.448;7.904;2022-12-18T01:43:55;99297.75;;;-12.12;70.04
46392;BME280;32098;49.448;7.904;2022-12-18T01:46:25;99296.59;;;-12.25;70.68
46392;BME280;32098;49.448;7.904;2022-12-18T01:48:59;99262.34;;;-12.47;71.22
46392;BME280;32098;49.448;7.904;2022-12-18T01:51:29;99301.78;;;-12.04;71.60
46392;BME280;32098;49.448;7.904;2022-12-18T01:53:57;99313.84;;;-11.85;72.35
46392;BME280;32098;49.448;7.904;2022-12-18T01:56:24;99319.34;;;-11.74;72.71
46392;BME280;32098;49.448;7.904;2022-12-18T01:59:04;99273.00;;;-11.94;71.49
46392;BME280;32098;49.448;7.904;2022-12-18T02:01:33;99267.03;;;-11.94;70.72
46392;BME280;32098;49.448;7.904;2022-12-18T02:04:22;99315.66;;;-11.67;70.46
46392;BME280;32098;49.448;7.904;2022-12-18T02:06:55;99326.94;;;-11.91;70.03
46392;BME280;32098;49.448;7.904;2022-12-18T02:09:38;99271.09;;;-12.31;70.42
46392;BME280;32098;49.448;7.904;2022-12-18T02:12:18;99342.19;;;-12.28;70.49
46392;BME280;32098;49.448;7.904;2022-12-18T02:15:00;99326.09;;;-12.33;70.33
46392;BME280;32098;49.448;7.904;2022-12-18T02:17:39;99327.59;;;-12.28;71.25
46392;BME280;32098;49.448;7.904;2022-12-18T02:20:23;99315.47;;;-12.04;71.86
46392;BME280;32098;49.448;7.904;2022-12-18T02:25:52;99322.84;;;-11.75;72.93
46392;BME280;32098;49.448;7.904;2022-12-18T02:28:23;99279.31;;;-11.81;72.21
46392;BME280;32098;49.448;7.904;2022-12-18T02:30:56;99276.16;;;-11.87;71.58
46392;BME280;32098;49.448;7.904;2022-12-18T02:33:25;99319.09;;;-11.68;70.49
46392;BME280;32098;49.448;7.904;2022-12-18T02:35:57;99179.81;;;-12.42;70.73
46392;BME280;32098;49.448;7.904;2022-12-18T02:38:27;99321.16;;;-11.35;71.15
46392;BME280;32098;49.448;7.904;2022-12-18T02:40:59;99334.91;;;-11.36;70.36
46392;BME280;32098;49.448;7.904;2022-12-18T02:43:26;99316.13;;;-11.38;69.88
46392;BME280;32098;49.448;7.904;2022-12-18T02:45:57;99075.44;;;-12.88;68.21
46392;BME280;32098;49.448;7.904;2022-12-18T02:48:34;99282.38;;;-11.53;68.63
46392;BME280;32098;49.448;7.904;2022-12-18T02:51:23;99277.47;;;-11.59;68.99
46392;BME280;32098;49.448;7.904;2022-12-18T02:54:10;99289.19;;;-11.52;68.94
46392;BME280;32098;49.448;7.904;2022-12-18T02:56:47;99309.03;;;-11.54;68.85
46392;BME280;32098;49.448;7.904;2022-12-18T02:59:24;99274.53;;;-11.50;68.73
46392;BME280;32098;49.448;7.904;2022-12-18T03:02:01;99245.06;;;-11.83;68.34
46392;BME280;32098;49.448;7.904;2022-12-18T03:05:30;99215.97;;;-11.85;68.73
46392;BME280;32098;49.448;7.904;2022-12-18T03:07:38;99240.88;;;-12.05;67.99
46392;BME280;32098;49.448;7.904;2022-12-18T03:10:12;99250.19;;;-12.23;69.32
46392;BME280;32098;49.448;7.904;2022-12-18T03:12:47;99274.97;;;-12.62;69.48
46392;BME280;32098;49.448;7.904;2022-12-18T03:15:21;99305.75;;;-12.39;69.67
46392;BME280;32098;49.448;7.904;2022-12-18T03:18:01;99153.69;;;-13.37;69.62
46392;BME280;32098;49.448;7.904;2022-12-18T03:20:31;99306.97;;;-12.06;69.36
46392;BME280;32098;49.448;7.904;2022-12-18T03:23:07;99199.72;;;-12.67;70.10
46392;BME280;32098;49.448;7.904;2022-12-18T03:25:39;99286.38;;;-11.86;70.90
46392;BME280;32098;49.448;7.904;2022-12-18T03:28:12;99306.75;;;-11.80;71.62
46392;BME280;32098;49.448;7.904;2022-12-18T03:30:43;98990.19;;;-13.81;71.79
46392;BME280;32098;49.448;7.904;2022-12-18T03:33:37;99228.97;;;-12.28;70.97
46392;BME280;32098;49.448;7.904;2022-12-18T03:36:07;99270.16;;;-11.88;72.17
46392;BME280;32098;49.448;7.904;2022-12-18T03:38:34;99273.91;;;-11.75;72.66
46392;BME280;32098;49.448;7.904;2022-12-18T03:41:42;99269.91;;;-11.82;72.03
46392;BME280;32098;49.448;7.904;2022-12-18T03:44:30;99280.19;;;-12.22;70.33
46392;BME280;32098;49.448;7.904;2022-12-18T03:47:25;99123.63;;;-13.35;69.52
46392;BME280;32098;49.448;7.904;2022-12-18T03:50:13;99285.91;;;-12.57;70.21
46392;BME280;32098;49.448;7.904;2022-12-18T03:55:35;99294.09;;;-12.48;69.73
46392;BME280;32098;49.448;7.904;2022-12-18T03:58:05;99168.78;;;-13.29;70.07
46392;BME280;32098;49.448;7.904;2022-12-18T04:00:47;99192.56;;;-13.03;70.38
46392;BME280;32098;49.448;7.904;2022-12-18T04:03:17;99281.78;;;-12.40;70.55
46392;BME280;32098;49.448;7.904;2022-12-18T04:05:52;99286.44;;;-12.28;70.99
46392;BME280;32098;49.448;7.904;2022-12-18T04:08:26;99295.88;;;-12.28;71.03
46392;BME280;32098;49.448;7.904;2022-12-18T04:11:01;99249.47;;;-12.47;71.54
46392;BME280;32098;49.448;7.904;2022-12-18T04:13:32;99290.94;;;-12.13;71.45
46392;BME280;32098;49.448;7.904;2022-12-18T04:16:04;99286.56;;;-12.10;71.69
46392;BME280;32098;49.448;7.904;2022-12-18T04:18:32;99271.81;;;-12.27;70.99
46392;BME280;32098;49.448;7.904;2022-12-18T04:21:00;99280.34;;;-12.27;70.79
46392;BME280;32098;49.448;7.904;2022-12-18T04:23:27;99234.66;;;-12.62;69.40
46392;BME280;32098;49.448;7.904;2022-12-18T04:25:57;99297.78;;;-12.33;68.96
46392;BME280;32098;49.448;7.904;2022-12-18T04:28:39;99292.56;;;-12.52;68.67
46392;BME280;32098;49.448;7.904;2022-12-18T04:31:06;99191.78;;;-13.26;69.85
46392;BME280;32098;49.448;7.904;2022-12-18T04:33:33;99281.66;;;-12.58;70.89
46392;BME280;32098;49.448;7.904;2022-12-18T04:36:01;99171.03;;;-13.22;70.68
46392;BME280;32098;49.448;7.904;2022-12-18T04:39:02;99274.59;;;-12.75;71.18
46392;BME280;32098;49.448;7.904;2022-12-18T04:41:33;99189.66;;;-13.15;71.39
46392;BME280;32098;49.448;7.904;2022-12-18T04:44:00;99118.81;;;-13.44;71.24
46392;BME280;32098;49.448;7.904;2022-12-18T04:46:27;99303.34;;;-12.44;70.81
46392;BME280;32098;49.448;7.904;2022-12-18T04:48:54;99275.00;;;-12.42;69.62
46392;BME280;32098;49.448;7.904;2022-12-18T04:51:21;99285.00;;;-12.35;70.21
46392;BME280;32098;49.448;7.904;2022-12-18T04:53:52;99237.03;;;-12.57;70.07
46392;BME280;32098;49.448;7.904;2022-12-18T04:56:20;99278.91;;;-12.32;69.30
46392;BME280;32098;49.448;7.904;2022-12-18T04:58:46;99206.66;;;-12.91;68.42
46392;BME280;32098;49.448;7.904;2022-12-18T05:01:17;99216.09;;;-12.92;68.77
46392;BME280;32098;49.448;7.904;2022-12-18T05:03:44;98980.03;;;-14.28;70.10
46392;BME280;32098;49.448;7.904;2022-12-18T05:06:11;99087.25;;;-13.91;70.59
46392;BME280;32098;49.448;7.904;2022-12-18T05:08:38;99280.72;;;-12.79;70.66
46392;BME280;32098;49.448;7.904;2022-12-18T05:11:11;99178.91;;;-13.48;70.97
46392;BME280;32098;49.448;7.904;2022-12-18T05:13:39;99229.81;;;-13.13;71.16
46392;BME280;32098;49.448;7.904;2022-12-18T05:16:07;99282.50;;;-12.58;70.94
46392;BME280;32098;49.448;7.904;2022-12-18T05:18:35;99240.63;;;-12.83;70.92
46392;BME280;32098;49.448;7.904;2022-12-18T05:21:02;99271.72;;;-12.67;74.33
46392;BME280;32098;49.448;7.904;2022-12-18T05:23:31;99276.28;;;-12.52;74.89
46392;BME280;32098;49.448;7.904;2022-12-18T05:26:02;99261.41;;;-12.46;75.26
46392;BME280;32098;49.448;7.904;2022-12-18T05:28:31;99170.56;;;-13.10;74.41
46392;BME280;32098;49.448;7.904;2022-12-18T05:31:00;99207.19;;;-12.83;73.62
46392;BME280;32098;49.448;7.904;2022-12-18T05:33:30;99095.53;;;-13.61;72.68
46392;BME280;32098;49.448;7.904;2022-12-18T05:35:59;98733.63;;;-15.75;70.79
46392;BME280;32098;49.448;7.904;2022-12-18T05:38:31;99283.00;;;-12.71;71.17
46392;BME280;32098;49.448;7.904;2022-12-18T05:40:58;99269.41;;;-12.97;71.37
46392;BME280;32098;49.448;7.904;2022-12-18T05:43:26;99274.81;;;-13.03;71.50
46392;BME280;32098;49.448;7.904;2022-12-18T05:45:53;99276.84;;;-12.89;72.49
46392;BME280;32098;49.448;7.904;2022-12-18T05:48:21;99282.34;;;-12.77;72.68
46392;BME280;32098;49.448;7.904;2022-12-18T05:50:49;99302.34;;;-12.61;71.78
46392;BME280;32098;49.448;7.904;2022-12-18T05:53:18;99244.81;;;-12.81;71.72
46392;BME280;32098;49.448;7.904;2022-12-18T05:55:46;99199.50;;;-13.05;70.78
46392;BME280;32098;49.448;7.904;2022-12-18T05:58:14;99187.78;;;-13.12;71.25
46392;BME280;32098;49.448;7.904;2022-12-18T06:00:44;99295.03;;;-12.29;71.45
46392;BME280;32098;49.448;7.904;2022-12-18T06:03:12;99236.31;;;-12.61;70.97
46392;BME280;32098;49.448;7.904;2022-12-18T06:05:42;99209.53;;;-12.77;70.56
46392;BME280;32098;49.448;7.904;2022-12-18T06:08:09;99201.47;;;-12.90;70.73
46392;BME280;32098;49.448;7.904;2022-12-18T06:10:37;99300.75;;;-12.42;70.28
46392;BME280;32098;49.448;7.904;2022-12-18T06:13:05;99302.59;;;-12.46;70.35
46392;BME280;32098;49.448;7.904;2022-12-18T06:15:32;99303.06;;;-12.36;70.45
46392;BME280;32098;49.448;7.904;2022-12-18T06:18:00;99306.94;;;-12.26;70.78
46392;BME280;32098;49.448;7.904;2022-12-18T06:20:31;99243.00;;;-12.79;69.92
46392;BME280;32098;49.448;7.904;2022-12-18T06:22:59;99335.06;;;-12.22;68.93
46392;BME280;32098;49.448;7.904;2022-12-18T06:25:26;99323.03;;;-12.21;69.20
46392;BME280;32098;49.448;7.904;2022-12-18T06:27:53;99161.81;;;-13.49;67.74
46392;BME280;32098;49.448;7.904;2022-12-18T06:30:21;99361.47;;;-12.38;67.75
46392;BME280;32098;49.448;7.904;2022-12-18T06:32:48;99305.47;;;-12.53;69.20
46392;BME280;32098;49.448;7.904;2022-12-18T06:35:22;99350.81;;;-12.29;70.10
46392;BME280;32098;49.448;7.904;2022-12-18T06:37:48;99348.72;;;-12.20;70.44
46392;BME280;32098;49.448;7.904;2022-12-18T06:40:16;99305.47;;;-12.53;69.72
46392;BME280;32098;49.448;7.904;2022-12-18T06:42:42;99329.88;;;-12.20;69.43
46392;BME280;32098;49.448;7.904;2022-12-18T06:45:09;99092.19;;;-13.63;68.81
46392;BME280;32098;49.448;7.904;2022-12-18T06:47:36;99242.78;;;-12.72;68.81
46392;BME280;32098;49.448;7.904;2022-12-18T06:50:03;99335.97;;;-12.23;68.63
46392;BME280;32098;49.448;7.904;2022-12-18T06:52:31;99247.50;;;-12.84;68.59
46392;BME280;32098;49.448;7.904;2022-12-18T06:54:59;99335.00;;;-12.20;68.99
46392;BME280;32098;49.448;7.904;2022-12-18T06:57:26;99255.69;;;-12.74;68.06
46392;BME280;32098;49.448;7.904;2022-12-18T06:59:53;99233.69;;;-12.81;68.13
46392;BME280;32098;49.448;7.904;2022-12-18T07:02:20;99111.66;;;-13.58;67.91
46392;BME280;32098;49.448;7.904;2022-12-18T07:04:46;99226.88;;;-12.82;68.65
46392;BME280;32098;49.448;7.904;2022-12-18T07:07:13;99215.13;;;-12.89;68.28
46392;BME280;32098;49.448;7.904;2022-12-18T07:09:40;99348.59;;;-12.38;66.94
46392;BME280;32098;49.448;7.904;2022-12-18T07:12:06;99206.22;;;-13.22;66.91
46392;BME280;32098;49.448;7.904;2022-12-18T07:14:34;99313.59;;;-12.42;66.56
46392;BME280;32098;49.448;7.904;2022-12-18T07:17:01;99333.94;;;-12.36;66.41
46392;BME280;32098;49.448;7.904;2022-12-18T07:19:29;99044.44;;;-14.35;66.35
46392;BME280;32098;49.448;7.904;2022-12-18T07:21:56;99336.63;;;-12.61;66.92
46392;BME280;32098;49.448;7.904;2022-12-18T07:24:23;99339.31;;;-12.64;67.23
46392;BME280;32098;49.448;7.904;2022-12-18T07:26:49;99307.00;;;-12.93;66.97
46392;BME280;32098;49.448;7.904;2022-12-18T07:29:16;99200.25;;;-13.46;66.62
46392;BME280;32098;49.448;7.904;2022-12-18T07:31:44;99354.59;;;-12.59;66.62
46392;BME280;32098;49.448;7.904;2022-12-18T07:34:11;99298.25;;;-12.89;66.65
46392;BME280;32098;49.448;7.904;2022-12-18T07:36:39;99352.59;;;-12.74;66.78
46392;BME280;32098;49.448;7.904;2022-12-18T07:39:05;99267.53;;;-13.13;67.80
46392;BME280;32098;49.448;7.904;2022-12-18T07:41:32;99077.75;;;-14.12;67.57
46392;BME280;32098;49.448;7.904;2022-12-18T07:44:10;99182.06;;;-13.63;67.40
46392;BME280;32098;49.448;7.904;2022-12-18T07:46:36;99387.41;;;-12.44;68.10
46392;BME280;32098;49.448;7.904;2022-12-18T07:49:03;99382.06;;;-12.38;69.33
46392;BME280;32098;49.448;7.904;2022-12-18T07:51:30;99173.00;;;-13.50;68.41
46392;BME280;32098;49.448;7.904;2022-12-18T07:53:57;99276.63;;;-12.83;68.68
46392;BME280;32098;49.448;7.904;2022-12-18T07:56:24;99296.25;;;-12.81;68.66
46392;BME280;32098;49.448;7.904;2022-12-18T07:58:54;99373.09;;;-12.28;69.32
46392;BME280;32098;49.448;7.904;2022-12-18T08:01:21;99303.00;;;-12.56;69.46
46392;BME280;32098;49.448;7.904;2022-12-18T08:03:48;99321.66;;;-12.51;69.15
46392;BME280;32098;49.448;7.904;2022-12-18T08:06:18;99343.16;;;-12.52;68.78
46392;BME280;32098;49.448;7.904;2022-12-18T08:08:53;99371.06;;;-12.20;69.95
46392;BME280;32098;49.448;7.904;2022-12-18T08:11:22;99371.53;;;-12.10;69.93
46392;BME280;32098;49.448;7.904;2022-12-18T08:13:49;99361.47;;;-11.95;69.58
46392;BME280;32098;49.448;7.904;2022-12-18T08:16:16;99365.03;;;-11.77;69.49
46392;BME280;32098;49.448;7.904;2022-12-18T08:18:43;99335.31;;;-11.86;69.40
46392;BME280;32098;49.448;7.904;2022-12-18T08:21:12;99313.31;;;-11.73;69.20
46392;BME280;32098;49.448;7.904;2022-12-18T08:23:39;99361.94;;;-11.45;68.13
46392;BME280;32098;49.448;7.904;2022-12-18T08:26:10;99350.13;;;-11.30;69.18
46392;BME280;32098;49.448;7.904;2022-12-18T08:28:37;99318.78;;;-11.40;70.37
46392;BME280;32098;49.448;7.904;2022-12-18T08:31:05;99361.06;;;-10.87;71.92
46392;BME280;32098;49.448;7.904;2022-12-18T08:33:32;99363.97;;;-10.94;70.62
46392;BME280;32098;49.448;7.904;2022-12-18T08:36:00;99186.66;;;-11.82;69.84
46392;BME280;32098;49.448;7.904;2022-12-18T08:38:27;99281.22;;;-11.08;69.84
46392;BME280;32098;49.448;7.904;2022-12-18T08:41:01;99356.53;;;-10.63;69.35
46392;BME280;32098;49.448;7.904;2022-12-18T08:43:28;99237.53;;;-11.49;69.88
46392;BME280;32098;49.448;7.904;2022-12-18T08:46:14;99296.69;;;-11.08;71.27
46392;BME280;32098;49.448;7.904;2022-12-18T08:48:41;99220.22;;;-11.45;71.56
46392;BME280;32098;49.448;7.904;2022-12-18T08:51:07;99342.16;;;-10.68;72.33
46392;BME280;32098;49.448;7.904;2022-12-18T08:53:36;99225.41;;;-11.09;72.57
46392;BME280;32098;49.448;7.904;2022-12-18T08:56:04;99238.00;;;-10.85;74.59
46392;BME280;32098;49.448;7.904;2022-12-18T08:58:31;99327.44;;;-10.12;75.63
46392;BME280;32098;49.448;7.904;2022-12-18T09:01:02;99159.44;;;-10.96;76.44
46392;BME280;32098;49.448;7.904;2022-12-18T09:03:33;99255.19;;;-10.13;77.59
46392;BME280;32098;49.448;7.904;2022-12-18T09:06:00;99219.22;;;-10.17;77.96
46392;BME280;32098;49.448;7.904;2022-12-18T09:08:27;99257.31;;;-9.87;78.16
46392;BME280;32098;49.448;7.904;2022-12-18T09:10:55;99407.66;;;-9.11;77.98
46392;BME280;32098;49.448;7.904;2022-12-18T09:13:22;99200.72;;;-9.92;77.09
46392;BME280;32098;49.448;7.904;2022-12-18T09:15:51;99238.63;;;-9.42;77.04
46392;BME280;32098;49.448;7.904;2022-12-18T09:18:22;99343.47;;;-8.56;76.58
46392;BME280;32098;49.448;7.904;2022-12-18T09:20:49;99218.13;;;-9.30;75.82
46392;BME280;32098;49.448;7.904;2022-12-18T09:23:18;99249.03;;;-9.11;75.95
46392;BME280;32098;49.448;7.904;2022-12-18T09:25:45;99254.78;;;-8.91;75.67
46392;BME280;32098;49.448;7.904;2022-12-18T09:28:14;99372.13;;;-8.12;75.46
46392;BME280;32098;49.448;7.904;2022-12-18T09:30:44;99268.47;;;-8.57;74.90
46392;BME280;32098;49.448;7.904;2022-12-18T09:33:11;99265.03;;;-8.58;75.02
46392;BME280;32098;49.448;7.904;2022-12-18T09:35:39;99378.84;;;-7.78;74.99
46392;BME280;32098;49.448;7.904;2022-12-18T09:38:06;99408.88;;;-7.74;74.52
46392;BME280;32098;49.448;7.904;2022-12-18T09:40:36;99397.19;;;-7.81;74.46
46392;BME280;32098;49.448;7.904;2022-12-18T09:43:53;99383.72;;;-7.88;74.50
46392;BME280;32098;49.448;7.904;2022-12-18T09:46:14;99342.38;;;-8.05;74.68
46392;BME280;32098;49.448;7.904;2022-12-18T09:48:46;99421.84;;;-7.74;74.08
46392;BME280;32098;49.448;7.904;2022-12-18T09:51:18;99396.00;;;-7.76;73.94
46392;BME280;32098;49.448;7.904;2022-12-18T09:53:51;99333.84;;;-8.07;73.83
46392;BME280;32098;49.448;7.904;2022-12-18T09:56:21;99151.56;;;-9.26;73.33
46392;BME280;32098;49.448;7.904;2022-12-18T09:58:54;99394.25;;;-7.75;74.57
46392;BME280;32098;49.448;7.904;2022-12-18T10:01:22;99362.25;;;-4.38;100.00
46392;BME280;32098;49.448;7.904;2022-12-18T10:03:50;99361.50;;;-3.56;98.12
46392;BME280;32098;49.448;7.904;2022-12-18T10:06:33;99353.34;;;-2.95;94.81
46392;BME280;32098;49.448;7.904;2022-12-18T10:09:14;99340.25;;;-3.63;77.42
46392;BME280;32098;49.448;7.904;2022-12-18T10:12:02;99393.56;;;-4.63;65.13
46392;BME280;32098;49.448;7.904;2022-12-18T10:17:40;99364.41;;;-6.80;70.77
46392;BME280;32098;49.448;7.904;2022-12-18T10:20:36;99374.88;;;-7.10;71.98
46392;BME280;32098;49.448;7.904;2022-12-18T10:25:46;99374.69;;;-7.07;73.10
46392;BME280;32098;49.448;7.904;2022-12-18T10:28:18;99212.25;;;-7.96;73.45
46392;BME280;32098;49.448;7.904;2022-12-18T10:30:45;99350.84;;;-7.28;73.83
46392;BME280;32098;49.448;7.904;2022-12-18T10:33:23;99362.78;;;-7.25;75.10
46392;BME280;32098;49.448;7.904;2022-12-18T10:35:50;99193.88;;;-8.21;74.42
46392;BME280;32098;49.448;7.904;2022-12-18T10:40:55;99357.09;;;-7.16;74.63
46392;BME280;32098;49.448;7.904;2022-12-18T10:48:27;99318.50;;;-7.22;75.08
46392;BME280;32098;49.448;7.904;2022-12-18T10:50:54;99334.34;;;-7.27;74.34
46392;BME280;32098;49.448;7.904;2022-12-18T10:53:41;99379.31;;;-7.12;74.36
46392;BME280;32098;49.448;7.904;2022-12-18T10:56:09;99375.59;;;-7.22;74.57
46392;BME280;32098;49.448;7.904;2022-12-18T10:58:38;99370.97;;;-7.31;74.68
46392;BME280;32098;49.448;7.904;2022-12-18T11:01:17;99350.59;;;-7.53;75.11
46392;BME280;32098;49.448;7.904;2022-12-18T11:03:59;99373.56;;;-7.17;75.17
46392;BME280;32098;49.448;7.904;2022-12-18T11:06:28;99300.81;;;-7.74;74.88
46392;BME280;32098;49.448;7.904;2022-12-18T11:09:03;99225.19;;;-7.96;75.38
46392;BME280;32098;49.448;7.904;2022-12-18T11:11:39;99362.91;;;-7.27;75.22
46392;BME280;32098;49.448;7.904;2022-12-18T11:14:13;99355.19;;;-7.28;75.72
46392;BME280;32098;49.448;7.904;2022-12-18T11:16:46;99322.09;;;-7.39;76.09
46392;BME280;32098;49.448;7.904;2022-12-18T11:19:37;99339.28;;;-7.08;75.61
46392;BME280;32098;49.448;7.904;2022-12-18T11:28:05;99297.19;;;-7.27;75.17
46392;BME280;32098;49.448;7.904;2022-12-18T11:33:56;99334.47;;;-7.00;74.63
46392;BME280;32098;49.448;7.904;2022-12-18T11:36:45;99333.09;;;-6.92;74.47
46392;BME280;32098;49.448;7.904;2022-12-18T11:39:21;99297.47;;;-7.32;74.81
46392;BME280;32098;49.448;7.904;2022-12-18T11:42:08;99172.81;;;-8.01;75.18
46392;BME280;32098;49.448;7.904;2022-12-18T11:47:29;99196.97;;;-8.00;75.96
46392;BME280;32098;49.448;7.904;2022-12-18T11:50:00;99262.34;;;-7.37;75.63
46392;BME280;32098;49.448;7.904;2022-12-18T11:52:36;99323.91;;;-7.11;75.74
46392;BME280;32098;49.448;7.904;2022-12-18T11:55:11;99299.69;;;-7.12;75.30
46392;BME280;32098;49.448;7.904;2022-12-18T11:57:41;99302.66;;;-6.90;75.34
46392;BME280;32098;49.448;7.904;2022-12-18T12:00:19;99220.44;;;-7.45;74.89
46392;BME280;32098;49.448;7.904;2022-12-18T12:09:33;99293.13;;;-6.89;75.97
46392;BME280;32098;49.448;7.904;2022-12-18T12:26:22;99258.97;;;-6.83;74.17
46392;BME280;32098;49.448;7.904;2022-12-18T12:29:09;99302.41;;;-6.44;73.88
46392;BME280;32098;49.448;7.904;2022-12-18T12:31:57;99291.75;;;-6.54;73.92
46392;BME280;32098;49.448;7.904;2022-12-18T12:40:35;99267.69;;;-6.43;73.69
46392;BME280;32098;49.448;7.904;2022-12-18T12:43:43;99278.03;;;-6.56;73.80
46392;BME280;32098;49.448;7.904;2022-12-18T12:46:18;99149.53;;;-7.18;74.11
46392;BME280;32098;49.448;7.904;2022-12-18T12:48:50;99278.22;;;-6.59;74.19
46392;BME280;32098;49.448;7.904;2022-12-18T12:51:37;99246.94;;;-6.84;74.98
46392;BME280;32098;49.448;7.904;2022-12-18T12:54:15;99269.72;;;-6.61;74.92
46392;BME280;32098;49.448;7.904;2022-12-18T12:57:05;99196.84;;;-6.86;74.53
46392;BME280;32098;49.448;7.904;2022-12-18T13:02:52;99099.19;;;-7.42;74.53
46392;BME280;32098;49.448;7.904;2022-12-18T13:08:23;99251.22;;;-6.56;74.82
46392;BME280;32098;49.448;7.904;2022-12-18T13:10:52;99201.50;;;-6.64;74.52
46392;BME280;32098;49.448;7.904;2022-12-18T13:13:53;99245.38;;;-6.60;75.16
46392;BME280;32098;49.448;7.904;2022-12-18T13:16:24;99240.28;;;-6.35;75.32
46392;BME280;32098;49.448;7.904;2022-12-18T13:18:56;99063.31;;;-7.35;74.22
46392;BME280;32098;49.448;7.904;2022-12-18T13:21:26;99235.97;;;-6.21;73.99
46392;BME280;32098;49.448;7.904;2022-12-18T13:23:54;99189.25;;;-6.62;74.37
46392;BME280;32098;49.448;7.904;2022-12-18T13:28:56;99236.00;;;-6.36;74.28
46392;BME280;32098;49.448;7.904;2022-12-18T13:37:35;99250.28;;;-6.29;74.17
46392;BME280;32098;49.448;7.904;2022-12-18T13:39:45;99112.19;;;-7.15;74.49
46392;BME280;32098;49.448;7.904;2022-12-18T13:45:00;99236.81;;;-6.21;74.79
46392;BME280;32098;49.448;7.904;2022-12-18T13:47:36;99232.22;;;-6.17;74.22
46392;BME280;32098;49.448;7.904;2022-12-18T13:50:20;99242.44;;;-6.14;74.56
46392;BME280;32098;49.448;7.904;2022-12-18T13:52:50;99217.38;;;-6.42;74.89
46392;BME280;32098;49.448;7.904;2022-12-18T13:55:19;99254.19;;;-6.36;74.86
46392;BME280;32098;49.448;7.904;2022-12-18T13:57:47;99151.28;;;-6.77;75.24
46392;BME280;32098;49.448;7.904;2022-12-18T14:00:26;99214.34;;;-6.22;74.92
46392;BME280;32098;49.448;7.904;2022-12-18T14:02:55;99214.75;;;-6.15;75.15
46392;BME280;32098;49.448;7.904;2022-12-18T14:05:31;99160.00;;;-6.52;74.79
46392;BME280;32098;49.448;7.904;2022-12-18T14:08:09;99196.63;;;-6.30;74.31
46392;BME280;32098;49.448;7.904;2022-12-18T14:10:41;99199.31;;;-6.44;74.69
46392;BME280;32098;49.448;7.904;2022-12-18T14:13:30;99235.56;;;-6.15;74.70
46392;BME280;32098;49.448;7.904;2022-12-18T14:16:00;99237.22;;;-6.14;74.81
46392;BME280;32098;49.448;7.904;2022-12-18T14:18:36;99227.75;;;-6.15;74.42
46392;BME280;32098;49.448;7.904;2022-12-18T14:21:06;99068.59;;;-7.10;74.73
46392;BME280;32098;49.448;7.904;2022-12-18T14:23:43;98734.19;;;-9.24;74.39
46392;BME280;32098;49.448;7.904;2022-12-18T14:26:28;99094.53;;;-6.96;74.51
46392;BME280;32098;49.448;7.904;2022-12-18T14:29:01;99238.41;;;-6.33;75.38
46392;BME280;32098;49.448;7.904;2022-12-18T14:31:38;99246.31;;;-6.34;75.34
46392;BME280;32098;49.448;7.904;2022-12-18T14:34:04;99201.75;;;-6.55;76.09